Mc Caskill, Arkansas
Current Conditions -  °F | °C
As of 3:37 AM on Saturday 25 Oct 2014 (Local Time) from KADF Reporting Station
Haze Haze  
Wind Chill: 54°   Ceiling: 200
Heat Index: 54°   Visibility: 4mi
Dew Point: 54°   Wind: 0mph
Humidity: 100%   Direction: NA
Pressure: 30.11"   Gusts: NA
Location:  33.9177°N, 93.6391°W
Report Text: KADF 250837Z AUTO 00000KT 4SM BR BKN002 12/12 A3011 RMK AO2
Loading
Personal Weather Stations






























Interactive Weather Map
Tropical Storm Tracking
New forecast layout! Learn more

10-Day Weather Forecast

Advertisements
Track Severe Weather on mobile